Аэропорт: Рощино. Тюмень

ICAO: USTR

METAR:
2019/01/21 22:30
USTR 212230Z 21005MPS CAVOK M12/M16 Q1013 R21/350060 NOSIG RMK QFE750/1001
METAR:
2019/01/21 21:00
TAF USTR 211955Z 2121/2221 19007G12MPS 3100 -SHSN BLSN BKN011 BKN015CB 
      TEMPO 2121/2203 20012MPS 0800 +SHSN BLSN VV003 
     FM220300 18007G12MPS 2100 -SHSN BLSN OVC007 BKN015CB 
      TEMPO 2203/2214 17014MPS 0400 +SHSN BLSN VV003 
     FM221400 21005MPS 4000 -SHSN BKN015CB